createdAt,value
2023-05-03T00:00:45.638Z,1021.18
2023-05-03T00:01:45.660Z,1021.20
2023-05-03T00:02:45.774Z,1021.14
2023-05-03T00:03:45.678Z,1021.13
2023-05-03T00:04:45.645Z,1021.12
2023-05-03T00:05:45.727Z,1021.13
2023-05-03T00:06:45.619Z,1021.09
2023-05-03T00:07:45.661Z,1021.11
2023-05-03T00:08:45.550Z,1021.09
2023-05-03T00:09:45.532Z,1021.10
2023-05-03T00:10:45.583Z,1021.10
2023-05-03T00:11:45.519Z,1021.07
2023-05-03T00:12:45.522Z,1021.07
2023-05-03T00:13:45.497Z,1021.06
2023-05-03T00:14:45.480Z,1021.04
2023-05-03T00:15:45.483Z,1021.05
2023-05-03T00:16:45.521Z,1021.07
2023-05-03T00:17:45.512Z,1021.05
2023-05-03T00:18:46.721Z,1021.05
2023-05-03T00:19:45.429Z,1021.02
2023-05-03T00:20:45.416Z,1020.99
2023-05-03T00:21:45.454Z,1021.04
2023-05-03T00:22:45.455Z,1021.04
2023-05-03T00:23:45.403Z,1021.08
2023-05-03T00:24:45.368Z,1021.04
2023-05-03T00:25:45.359Z,1021.05
2023-05-03T00:26:45.364Z,1021.03
2023-05-03T00:27:45.392Z,1021.05
2023-05-03T00:28:45.348Z,1021.04
2023-05-03T00:29:45.328Z,1021.00
2023-05-03T00:30:45.323Z,1021.02
2023-05-03T00:31:45.337Z,1021.01
2023-05-03T00:32:45.355Z,1021.01
2023-05-03T00:33:45.275Z,1020.97
2023-05-03T00:34:45.284Z,1021.00
2023-05-03T00:35:45.253Z,1020.97
2023-05-03T00:36:45.296Z,1020.97
2023-05-03T00:37:45.257Z,1021.00
2023-05-03T00:38:45.239Z,1021.00
2023-05-03T00:39:45.213Z,1021.02
2023-05-03T00:40:45.211Z,1021.01
2023-05-03T00:41:45.222Z,1021.03
2023-05-03T00:42:45.184Z,1021.04
2023-05-03T00:43:45.176Z,1021.04
2023-05-03T00:44:45.155Z,1021.03
2023-05-03T00:45:45.150Z,1021.08
2023-05-03T00:46:45.225Z,1021.05
2023-05-03T00:47:45.201Z,1021.02
2023-05-03T00:48:45.110Z,1021.08
2023-05-03T00:49:45.110Z,1021.10
2023-05-03T00:50:45.098Z,1021.07
2023-05-03T00:51:45.082Z,1021.04
2023-05-03T00:52:45.093Z,1021.05
2023-05-03T00:53:45.066Z,1021.07
2023-05-03T00:54:45.052Z,1021.09
2023-05-03T00:55:45.060Z,1021.04
2023-05-03T00:56:51.524Z,1021.08
2023-05-03T00:57:46.070Z,1021.09
2023-05-03T00:58:45.033Z,1021.12
2023-05-03T00:59:44.992Z,1021.09
2023-05-03T01:00:45.017Z,1021.08
2023-05-03T01:01:45.003Z,1021.09
2023-05-03T01:02:45.087Z,1021.05
2023-05-03T01:03:45.103Z,1021.07
2023-05-03T01:04:44.973Z,1021.07
2023-05-03T01:05:44.931Z,1021.13
2023-05-03T01:06:44.974Z,1021.15
2023-05-03T01:07:44.905Z,1021.14
2023-05-03T01:08:44.915Z,1021.17
2023-05-03T01:09:44.894Z,1021.14
2023-05-03T01:10:44.875Z,1021.12
2023-05-03T01:11:44.906Z,1021.11
2023-05-03T01:12:44.875Z,1021.09
2023-05-03T01:13:44.864Z,1021.03
2023-05-03T01:14:44.832Z,1021.09
2023-05-03T01:15:44.855Z,1021.09
2023-05-03T01:16:44.968Z,1021.13
2023-05-03T01:17:44.859Z,1021.12
2023-05-03T01:18:44.786Z,1021.14
2023-05-03T01:19:44.810Z,1021.09
2023-05-03T01:20:44.794Z,1021.12
2023-05-03T01:21:44.815Z,1021.10
2023-05-03T01:22:44.778Z,1021.07
2023-05-03T01:23:44.759Z,1021.04
2023-05-03T01:24:44.729Z,1021.07
2023-05-03T01:25:44.706Z,1021.03
2023-05-03T01:26:44.713Z,1021.05
2023-05-03T01:27:44.716Z,1021.02
2023-05-03T01:28:44.689Z,1021.03
2023-05-03T01:29:44.672Z,1021.08
2023-05-03T01:30:44.690Z,1021.05
2023-05-03T01:31:44.699Z,1021.09
2023-05-03T01:32:44.690Z,1021.03
2023-05-03T01:33:44.706Z,1021.06
2023-05-03T01:34:44.623Z,1021.08
2023-05-03T01:35:44.597Z,1021.07
2023-05-03T01:36:44.609Z,1021.10
2023-05-03T01:37:44.624Z,1021.12
2023-05-03T01:38:44.584Z,1021.10
2023-05-03T01:39:44.609Z,1021.09
2023-05-03T01:40:44.557Z,1021.14
2023-05-03T01:41:44.559Z,1021.11
2023-05-03T01:42:44.551Z,1021.13
2023-05-03T01:43:44.517Z,1021.13
2023-05-03T01:44:44.506Z,1021.09
2023-05-03T01:45:44.513Z,1021.12
2023-05-03T01:46:44.503Z,1021.11
2023-05-03T01:47:44.526Z,1021.10
2023-05-03T01:48:44.569Z,1021.12
2023-05-03T01:49:44.521Z,1021.10
2023-05-03T01:50:44.458Z,1021.13
2023-05-03T01:51:44.425Z,1021.12
2023-05-03T01:52:44.423Z,1021.09
2023-05-03T01:53:44.411Z,1021.09
2023-05-03T01:54:44.397Z,1021.09
2023-05-03T01:55:44.395Z,1021.08
2023-05-03T01:56:44.396Z,1021.10
2023-05-03T01:57:44.371Z,1021.09
2023-05-03T01:58:44.356Z,1021.11
2023-05-03T01:59:44.367Z,1021.13
2023-05-03T02:00:44.374Z,1021.13
2023-05-03T02:01:44.400Z,1021.11
2023-05-03T02:02:44.336Z,1021.17
2023-05-03T02:03:44.331Z,1021.14
2023-05-03T02:04:44.350Z,1021.16
2023-05-03T02:05:44.286Z,1021.20
2023-05-03T02:06:44.479Z,1021.18
2023-05-03T02:07:44.255Z,1021.20
2023-05-03T02:08:44.253Z,1021.18
2023-05-03T02:09:44.230Z,1021.20
2023-05-03T02:10:44.223Z,1021.19
2023-05-03T02:11:44.229Z,1021.21
2023-05-03T02:12:44.213Z,1021.22
2023-05-03T02:13:44.186Z,1021.19
2023-05-03T02:14:44.197Z,1021.25
2023-05-03T02:15:44.169Z,1021.25
2023-05-03T02:16:44.229Z,1021.24
2023-05-03T02:17:44.222Z,1021.25
2023-05-03T02:18:44.143Z,1021.27
2023-05-03T02:19:44.123Z,1021.27
2023-05-03T02:20:44.116Z,1021.28
2023-05-03T02:21:44.109Z,1021.28
2023-05-03T02:22:44.151Z,1021.27
2023-05-03T02:23:44.084Z,1021.31
2023-05-03T02:24:44.118Z,1021.31
2023-05-03T02:25:44.084Z,1021.34
2023-05-03T02:26:44.082Z,1021.34
2023-05-03T02:27:44.056Z,1021.34
2023-05-03T02:28:44.031Z,1021.31
2023-05-03T02:29:44.022Z,1021.33
2023-05-03T02:30:44.011Z,1021.35
2023-05-03T02:31:44.000Z,1021.35
2023-05-03T02:32:44.021Z,1021.35
2023-05-03T02:33:43.973Z,1021.37
2023-05-03T02:34:43.961Z,1021.40
2023-05-03T02:35:43.961Z,1021.41
2023-05-03T02:36:43.943Z,1021.39
2023-05-03T02:37:43.997Z,1021.41
2023-05-03T02:38:43.924Z,1021.44
2023-05-03T02:39:43.900Z,1021.44
2023-05-03T02:40:43.895Z,1021.45
2023-05-03T02:41:43.882Z,1021.44
2023-05-03T02:42:43.983Z,1021.46
2023-05-03T02:43:43.856Z,1021.45
2023-05-03T02:44:43.858Z,1021.47
2023-05-03T02:45:43.832Z,1021.48
2023-05-03T02:46:43.948Z,1021.47
2023-05-03T02:47:43.862Z,1021.51
2023-05-03T02:48:43.814Z,1021.52
2023-05-03T02:49:43.833Z,1021.53
2023-05-03T02:50:43.821Z,1021.52
2023-05-03T02:51:43.774Z,1021.52
2023-05-03T02:52:43.766Z,1021.53
2023-05-03T02:53:43.811Z,1021.55
2023-05-03T02:54:43.756Z,1021.56
2023-05-03T02:55:43.738Z,1021.55
2023-05-03T02:56:43.975Z,1021.53
2023-05-03T02:57:43.710Z,1021.54
2023-05-03T02:58:43.720Z,1021.53
2023-05-03T02:59:43.778Z,1021.51
2023-05-03T03:00:43.679Z,1021.45
2023-05-03T03:01:44.004Z,1021.48
2023-05-03T03:02:43.807Z,1021.47
2023-05-03T03:03:43.729Z,1021.49
2023-05-03T03:04:43.636Z,1021.52
2023-05-03T03:05:43.619Z,1021.45
2023-05-03T03:06:43.678Z,1021.44
2023-05-03T03:07:43.697Z,1021.49
2023-05-03T03:08:43.591Z,1021.44
2023-05-03T03:09:43.569Z,1021.44
2023-05-03T03:10:43.568Z,1021.46
2023-05-03T03:11:43.565Z,1021.46
2023-05-03T03:12:43.599Z,1021.41
2023-05-03T03:13:43.530Z,1021.40
2023-05-03T03:14:43.525Z,1021.43
2023-05-03T03:15:43.543Z,1021.42
2023-05-03T03:16:43.511Z,1021.44
2023-05-03T03:17:43.529Z,1021.41
2023-05-03T03:18:43.473Z,1021.40
2023-05-03T03:19:43.477Z,1021.37
2023-05-03T03:20:43.473Z,1021.39
2023-05-03T03:21:43.476Z,1021.39
2023-05-03T03:22:43.459Z,1021.38
2023-05-03T03:23:43.430Z,1021.42
2023-05-03T03:24:43.414Z,1021.37
2023-05-03T03:25:43.399Z,1021.36
2023-05-03T03:26:43.437Z,1021.36
2023-05-03T03:27:43.388Z,1021.36
2023-05-03T03:28:43.372Z,1021.31
2023-05-03T03:29:43.352Z,1021.33
2023-05-03T03:30:43.355Z,1021.32
2023-05-03T03:31:43.358Z,1021.30
2023-05-03T03:32:43.393Z,1021.32
2023-05-03T03:33:43.307Z,1021.32
2023-05-03T03:34:43.306Z,1021.33
2023-05-03T03:35:43.336Z,1021.31
2023-05-03T03:36:43.293Z,1021.33
2023-05-03T03:37:43.272Z,1021.34
2023-05-03T03:38:43.272Z,1021.33
2023-05-03T03:39:43.253Z,1021.34
2023-05-03T03:40:43.252Z,1021.35
2023-05-03T03:41:43.242Z,1021.33
2023-05-03T03:42:43.235Z,1021.31
2023-05-03T03:43:43.234Z,1021.33
2023-05-03T03:44:43.190Z,1021.32
2023-05-03T03:45:43.193Z,1021.32
2023-05-03T03:46:43.253Z,1021.34
2023-05-03T03:47:43.233Z,1021.30
2023-05-03T03:48:43.153Z,1021.32
2023-05-03T03:49:43.143Z,1021.28
2023-05-03T03:50:43.141Z,1021.29
2023-05-03T03:51:43.118Z,1021.32
2023-05-03T03:52:43.147Z,1021.30
2023-05-03T03:53:43.115Z,1021.29
2023-05-03T03:54:43.077Z,1021.30
2023-05-03T03:55:43.079Z,1021.26
2023-05-03T03:56:43.116Z,1021.24
2023-05-03T03:57:43.087Z,1021.27
2023-05-03T03:58:43.041Z,1021.24
2023-05-03T03:59:43.054Z,1021.23
2023-05-03T04:00:43.036Z,1021.29
2023-05-03T04:01:43.035Z,1021.23
2023-05-03T04:02:43.125Z,1021.22
2023-05-03T04:03:43.066Z,1021.23
2023-05-03T04:04:42.969Z,1021.16
2023-05-03T04:05:42.998Z,1021.20
2023-05-03T04:06:43.025Z,1021.18
2023-05-03T04:07:43.013Z,1021.18
2023-05-03T04:08:42.948Z,1021.20
2023-05-03T04:09:42.922Z,1021.21
2023-05-03T04:10:42.919Z,1021.23
2023-05-03T04:11:42.926Z,1021.22
2023-05-03T04:12:42.882Z,1021.17
2023-05-03T04:13:42.877Z,1021.18
2023-05-03T04:14:42.890Z,1021.15
2023-05-03T04:15:42.860Z,1021.19
2023-05-03T04:16:42.894Z,1021.16
2023-05-03T04:17:42.934Z,1021.18
2023-05-03T04:18:42.811Z,1021.18
2023-05-03T04:19:42.953Z,1021.21
2023-05-03T04:20:42.800Z,1021.20
2023-05-03T04:21:42.791Z,1021.20
2023-05-03T04:22:42.786Z,1021.20
2023-05-03T04:23:42.772Z,1021.17
2023-05-03T04:24:42.803Z,1021.18
2023-05-03T04:25:42.749Z,1021.13
2023-05-03T04:26:42.788Z,1021.14
2023-05-03T04:27:42.726Z,1021.08
2023-05-03T04:28:42.710Z,1021.08
2023-05-03T04:29:42.704Z,1021.05
2023-05-03T04:30:42.686Z,1021.04
2023-05-03T04:31:42.688Z,1020.98
2023-05-03T04:32:42.881Z,1021.02
2023-05-03T04:33:42.663Z,1021.00
2023-05-03T04:34:42.655Z,1021.04
2023-05-03T04:35:42.663Z,1021.00
2023-05-03T04:36:42.627Z,1021.04
2023-05-03T04:37:42.755Z,1020.98
2023-05-03T04:38:42.605Z,1020.97
2023-05-03T04:39:42.580Z,1020.94
2023-05-03T04:40:42.574Z,1020.96
2023-05-03T04:41:42.596Z,1020.94
2023-05-03T04:42:42.563Z,1020.95
2023-05-03T04:43:42.539Z,1020.97
2023-05-03T04:44:42.545Z,1021.00
2023-05-03T04:45:42.520Z,1021.02
2023-05-03T04:46:42.861Z,1021.03
2023-05-03T04:47:42.549Z,1021.05
2023-05-03T04:48:42.490Z,1021.09
2023-05-03T04:49:42.473Z,1021.12
2023-05-03T04:50:42.525Z,1021.13
2023-05-03T04:51:42.451Z,1021.16
2023-05-03T04:52:42.450Z,1021.20
2023-05-03T04:53:42.431Z,1021.23
2023-05-03T04:54:42.449Z,1021.21
2023-05-03T04:55:42.443Z,1021.26
2023-05-03T04:56:42.400Z,1021.28
2023-05-03T04:57:42.385Z,1021.31
2023-05-03T04:58:42.386Z,1021.26
2023-05-03T04:59:42.397Z,1021.30
2023-05-03T05:00:42.378Z,1021.31
2023-05-03T05:01:42.380Z,1021.34
2023-05-03T05:02:42.403Z,1021.39
2023-05-03T05:03:42.499Z,1021.39
2023-05-03T05:04:42.380Z,1021.43
2023-05-03T05:05:42.326Z,1021.45
2023-05-03T05:06:42.380Z,1021.47
2023-05-03T05:07:42.279Z,1021.45
2023-05-03T05:08:42.279Z,1021.44
2023-05-03T05:09:42.318Z,1021.43
2023-05-03T05:10:42.252Z,1021.47
2023-05-03T05:11:42.254Z,1021.46
2023-05-03T05:12:42.240Z,1021.42
2023-05-03T05:13:42.241Z,1021.42
2023-05-03T05:14:42.202Z,1021.42
2023-05-03T05:15:42.181Z,1021.42
2023-05-03T05:16:42.275Z,1021.42
2023-05-03T05:17:42.253Z,1021.43
2023-05-03T05:18:42.155Z,1021.45
2023-05-03T05:19:42.138Z,1021.43
2023-05-03T05:20:42.149Z,1021.49
2023-05-03T05:21:42.119Z,1021.44
2023-05-03T05:22:42.110Z,1021.45
2023-05-03T05:23:42.260Z,1021.40
2023-05-03T05:24:42.098Z,1021.39
2023-05-03T05:25:42.100Z,1021.43
2023-05-03T05:26:42.139Z,1021.47
2023-05-03T05:27:42.058Z,1021.48
2023-05-03T05:28:42.082Z,1021.44
2023-05-03T05:29:42.082Z,1021.48
2023-05-03T05:30:42.164Z,1021.51
2023-05-03T05:31:42.070Z,1021.50
2023-05-03T05:32:42.015Z,1021.52
2023-05-03T05:33:41.981Z,1021.50
2023-05-03T05:34:45.079Z,1021.50
2023-05-03T05:35:41.973Z,1021.47
2023-05-03T05:36:41.966Z,1021.55
2023-05-03T05:37:41.939Z,1021.57
2023-05-03T05:38:41.938Z,1021.58
2023-05-03T05:39:41.924Z,1021.60
2023-05-03T05:40:41.979Z,1021.57
2023-05-03T05:41:41.905Z,1021.58
2023-05-03T05:42:41.894Z,1021.59
2023-05-03T05:43:41.882Z,1021.58
2023-05-03T05:44:41.886Z,1021.56
2023-05-03T05:45:41.970Z,1021.60
2023-05-03T05:46:41.895Z,1021.63
2023-05-03T05:47:41.930Z,1021.62
2023-05-03T05:48:41.829Z,1021.65
2023-05-03T05:49:41.820Z,1021.69
2023-05-03T05:50:41.837Z,1021.69
2023-05-03T05:51:41.790Z,1021.73
2023-05-03T05:52:41.781Z,1021.77
2023-05-03T05:53:41.773Z,1021.77
2023-05-03T05:54:41.777Z,1021.78
2023-05-03T05:55:41.763Z,1021.71
2023-05-03T05:56:41.743Z,1021.76
2023-05-03T05:57:41.789Z,1021.77
2023-05-03T05:58:41.735Z,1021.75
2023-05-03T05:59:41.700Z,1021.77
2023-05-03T06:00:41.722Z,1021.74
2023-05-03T06:01:41.944Z,1021.73
2023-05-03T06:02:42.156Z,1021.76
2023-05-03T06:03:41.672Z,1021.74
2023-05-03T06:04:41.674Z,1021.72
2023-05-03T06:05:41.706Z,1021.67
2023-05-03T06:06:41.688Z,1021.70
2023-05-03T06:07:41.618Z,1021.69
2023-05-03T06:08:41.675Z,1021.66
2023-05-03T06:09:41.605Z,1021.68
2023-05-03T06:10:41.662Z,1021.65
2023-05-03T06:11:41.584Z,1021.63
2023-05-03T06:12:41.585Z,1021.62
2023-05-03T06:13:41.558Z,1021.66
2023-05-03T06:14:51.667Z,1021.68
2023-05-03T06:15:42.536Z,1021.70
2023-05-03T06:16:41.657Z,1021.67
2023-05-03T06:17:41.556Z,1021.66
2023-05-03T06:18:41.544Z,1021.61
2023-05-03T06:19:43.175Z,1021.63
2023-05-03T06:20:41.526Z,1021.69
2023-05-03T06:21:41.475Z,1021.62
2023-05-03T06:22:41.465Z,1021.66
2023-05-03T06:23:41.470Z,1021.68
2023-05-03T06:24:41.467Z,1021.68
2023-05-03T06:25:41.434Z,1021.63
2023-05-03T06:26:41.454Z,1021.63
2023-05-03T06:27:41.398Z,1021.67
2023-05-03T06:28:41.412Z,1021.69
2023-05-03T06:29:41.403Z,1021.70
2023-05-03T06:30:41.416Z,1021.68
2023-05-03T06:31:41.509Z,1021.70
2023-05-03T06:32:41.404Z,1021.71
2023-05-03T06:33:41.394Z,1021.71
2023-05-03T06:34:41.357Z,1021.71
2023-05-03T06:35:41.343Z,1021.71
2023-05-03T06:36:41.305Z,1021.69
2023-05-03T06:37:41.313Z,1021.71
2023-05-03T06:38:41.277Z,1021.70
2023-05-03T06:39:41.301Z,1021.71
2023-05-03T06:40:41.295Z,1021.73
2023-05-03T06:41:41.249Z,1021.74
2023-05-03T06:42:41.252Z,1021.72
2023-05-03T06:43:41.226Z,1021.74
2023-05-03T06:44:41.252Z,1021.79
2023-05-03T06:45:41.247Z,1021.76
2023-05-03T06:46:41.216Z,1021.76
2023-05-03T06:47:41.230Z,1021.69
2023-05-03T06:48:41.185Z,1021.72
2023-05-03T06:49:41.164Z,1021.73
2023-05-03T06:50:41.160Z,1021.78
2023-05-03T06:51:41.136Z,1021.76
2023-05-03T06:52:41.138Z,1021.75
2023-05-03T06:53:41.182Z,1021.78
2023-05-03T06:54:41.154Z,1021.77
2023-05-03T06:55:41.115Z,1021.75
2023-05-03T06:56:41.093Z,1021.75
2023-05-03T06:57:41.064Z,1021.74
2023-05-03T06:58:41.057Z,1021.79
2023-05-03T06:59:41.100Z,1021.81
2023-05-03T07:00:41.109Z,1021.81
2023-05-03T07:01:41.093Z,1021.75
2023-05-03T07:02:41.100Z,1021.75
2023-05-03T07:03:42.110Z,1021.78
2023-05-03T07:04:41.008Z,1021.78
2023-05-03T07:05:41.018Z,1021.78
2023-05-03T07:06:55.298Z,1021.77
2023-05-03T07:07:41.961Z,1021.73
2023-05-03T07:08:40.968Z,1021.70
2023-05-03T07:09:43.465Z,1021.67
2023-05-03T07:10:40.974Z,1021.63
2023-05-03T07:11:40.934Z,1021.62
2023-05-03T07:12:40.903Z,1021.63
2023-05-03T07:13:40.903Z,1021.62
2023-05-03T07:14:40.909Z,1021.66
2023-05-03T07:15:40.876Z,1021.67
2023-05-03T07:16:40.900Z,1021.65
2023-05-03T07:17:40.903Z,1021.62
2023-05-03T07:18:40.834Z,1021.64
2023-05-03T07:19:40.839Z,1021.66
2023-05-03T07:20:40.816Z,1021.62
2023-05-03T07:21:40.802Z,1021.61
2023-05-03T07:22:40.787Z,1021.61
2023-05-03T07:23:40.860Z,1021.59
2023-05-03T07:24:40.841Z,1021.60
2023-05-03T07:25:40.824Z,1021.59
2023-05-03T07:26:41.990Z,1021.61
2023-05-03T07:27:40.751Z,1021.59
2023-05-03T07:28:40.765Z,1021.61
2023-05-03T07:29:40.729Z,1021.56
2023-05-03T07:30:40.698Z,1021.56
2023-05-03T07:31:40.709Z,1021.56
2023-05-03T07:32:40.926Z,1021.54
2023-05-03T07:33:40.816Z,1021.55
2023-05-03T07:34:40.678Z,1021.53
2023-05-03T07:35:40.652Z,1021.51
2023-05-03T07:36:40.656Z,1021.52
2023-05-03T07:37:40.638Z,1021.52
2023-05-03T07:38:40.613Z,1021.47
2023-05-03T07:39:40.639Z,1021.42
2023-05-03T07:40:40.624Z,1021.48
2023-05-03T07:41:40.583Z,1021.42
2023-05-03T07:42:40.571Z,1021.44
2023-05-03T07:43:40.565Z,1021.44
2023-05-03T07:44:40.900Z,1021.42
2023-05-03T07:45:40.616Z,1021.47
2023-05-03T07:46:40.523Z,1021.42
2023-05-03T07:47:40.579Z,1021.38
2023-05-03T07:48:40.556Z,1021.40
2023-05-03T07:49:40.547Z,1021.32
2023-05-03T07:50:40.484Z,1021.30
2023-05-03T07:51:40.497Z,1021.28
2023-05-03T07:52:40.477Z,1021.30
2023-05-03T07:53:40.445Z,1021.25
2023-05-03T07:54:40.434Z,1021.28
2023-05-03T07:55:40.429Z,1021.28
2023-05-03T07:56:40.427Z,1021.16
2023-05-03T07:57:40.397Z,1021.20
2023-05-03T07:58:41.198Z,1021.22
2023-05-03T07:59:40.398Z,1021.22
2023-05-03T08:00:40.367Z,1021.22
2023-05-03T08:01:40.369Z,1021.21
2023-05-03T08:02:40.474Z,1021.18
2023-05-03T08:03:40.613Z,1021.16
2023-05-03T08:04:40.544Z,1021.13
2023-05-03T08:05:40.396Z,1021.10
2023-05-03T08:06:40.349Z,1021.10
2023-05-03T08:07:40.291Z,1021.10
2023-05-03T08:08:40.317Z,1021.03
2023-05-03T08:09:40.274Z,1021.04
2023-05-03T08:10:40.264Z,1021.01
2023-05-03T08:11:43.176Z,1020.98
2023-05-03T08:12:40.242Z,1020.99
2023-05-03T08:13:40.231Z,1020.96
2023-05-03T08:14:40.254Z,1020.97
2023-05-03T08:15:40.264Z,1020.96
2023-05-03T08:16:40.214Z,1020.92
2023-05-03T08:17:40.217Z,1020.90
2023-05-03T08:18:40.181Z,1020.91
2023-05-03T08:19:40.188Z,1020.87
2023-05-03T08:20:40.163Z,1020.87
2023-05-03T08:21:40.146Z,1020.87
2023-05-03T08:22:40.139Z,1020.87
2023-05-03T08:23:40.119Z,1020.85
2023-05-03T08:24:40.127Z,1020.84
2023-05-03T08:25:40.118Z,1020.85
2023-05-03T08:26:40.093Z,1020.82
2023-05-03T08:27:40.082Z,1020.88
2023-05-03T08:28:40.115Z,1020.87
2023-05-03T08:29:40.075Z,1020.87
2023-05-03T08:30:40.054Z,1020.86
2023-05-03T08:31:40.160Z,1020.82
2023-05-03T08:32:40.073Z,1020.87
2023-05-03T08:33:40.025Z,1020.91
2023-05-03T08:34:40.052Z,1020.86
2023-05-03T08:35:40.017Z,1020.90
2023-05-03T08:36:39.987Z,1020.86
2023-05-03T08:37:39.994Z,1020.89
2023-05-03T08:38:39.967Z,1020.85
2023-05-03T08:39:39.961Z,1020.81
2023-05-03T08:40:39.960Z,1020.83
2023-05-03T08:41:39.957Z,1020.76
2023-05-03T08:42:39.920Z,1020.77
2023-05-03T08:43:39.954Z,1020.72
2023-05-03T08:44:39.916Z,1020.70
2023-05-03T08:45:39.891Z,1020.71
2023-05-03T08:46:39.899Z,1020.74
2023-05-03T08:47:39.934Z,1020.66
2023-05-03T08:48:39.869Z,1020.66
2023-05-03T08:49:39.885Z,1020.68
2023-05-03T08:50:39.874Z,1020.66
2023-05-03T08:51:39.841Z,1020.72
2023-05-03T08:52:40.786Z,1020.69
2023-05-03T08:53:39.816Z,1020.68
2023-05-03T08:54:39.865Z,1020.68
2023-05-03T08:55:39.805Z,1020.69
2023-05-03T08:56:39.792Z,1020.67
2023-05-03T08:57:39.749Z,1020.65
2023-05-03T08:58:39.778Z,1020.66
2023-05-03T08:59:39.794Z,1020.63
2023-05-03T09:00:39.741Z,1020.63
2023-05-03T09:01:39.760Z,1020.61
2023-05-03T09:02:40.047Z,1020.61
2023-05-03T09:03:39.911Z,1020.61
2023-05-03T09:04:39.707Z,1020.66
2023-05-03T09:05:39.685Z,1020.62
2023-05-03T09:06:39.722Z,1020.60
2023-05-03T09:07:39.689Z,1020.56
2023-05-03T09:08:39.695Z,1020.53
2023-05-03T09:09:39.633Z,1020.57
2023-05-03T09:10:39.618Z,1020.56
2023-05-03T09:11:39.615Z,1020.54
2023-05-03T09:12:39.628Z,1020.47
2023-05-03T09:13:39.614Z,1020.50
2023-05-03T09:14:39.629Z,1020.53
2023-05-03T09:15:39.575Z,1020.56
2023-05-03T09:16:39.590Z,1020.56
2023-05-03T09:17:39.602Z,1020.62
2023-05-03T09:18:39.534Z,1020.57
2023-05-03T09:19:39.616Z,1020.59
2023-05-03T09:20:39.546Z,1020.53
2023-05-03T09:21:39.494Z,1020.54
2023-05-03T09:22:39.502Z,1020.54
2023-05-03T09:23:39.482Z,1020.61
2023-05-03T09:24:39.491Z,1020.58
2023-05-03T09:25:39.483Z,1020.55
2023-05-03T09:26:39.471Z,1020.53
2023-05-03T09:27:39.456Z,1020.56
2023-05-03T09:28:39.459Z,1020.49
2023-05-03T09:29:39.501Z,1020.48
2023-05-03T09:30:39.421Z,1020.49
2023-05-03T09:31:39.429Z,1020.44
2023-05-03T09:32:39.425Z,1020.47
2023-05-03T09:33:39.380Z,1020.51
2023-05-03T09:34:39.406Z,1020.50
2023-05-03T09:35:39.375Z,1020.54
2023-05-03T09:36:39.345Z,1020.48
2023-05-03T09:37:39.334Z,1020.50
2023-05-03T09:38:39.339Z,1020.49
2023-05-03T09:39:39.335Z,1020.38
2023-05-03T09:40:39.615Z,1020.42
2023-05-03T09:41:39.295Z,1020.40
2023-05-03T09:42:39.284Z,1020.34
2023-05-03T09:43:39.277Z,1020.32
2023-05-03T09:44:39.279Z,1020.34
2023-05-03T09:45:39.283Z,1020.36
2023-05-03T09:46:39.247Z,1020.36
2023-05-03T09:47:39.254Z,1020.36
2023-05-03T09:48:39.238Z,1020.31
2023-05-03T09:49:39.225Z,1020.28
2023-05-03T09:50:39.208Z,1020.29
2023-05-03T09:51:39.190Z,1020.25
2023-05-03T09:52:39.196Z,1020.24
2023-05-03T09:53:39.175Z,1020.26
2023-05-03T09:54:39.175Z,1020.22
2023-05-03T09:55:39.170Z,1020.24
2023-05-03T09:56:39.163Z,1020.21
2023-05-03T09:57:39.174Z,1020.23
2023-05-03T09:58:39.139Z,1020.17
2023-05-03T09:59:39.137Z,1020.16
2023-05-03T10:00:39.105Z,1020.10
2023-05-03T10:01:39.138Z,1020.10
2023-05-03T10:02:39.118Z,1020.07
2023-05-03T10:03:39.150Z,1020.04
2023-05-03T10:04:39.113Z,1020.06
2023-05-03T10:05:39.049Z,1020.02
2023-05-03T10:06:39.078Z,1020.08
2023-05-03T10:07:39.028Z,1020.06
2023-05-03T10:08:39.036Z,1020.11
2023-05-03T10:09:39.033Z,1020.12
2023-05-03T10:10:39.030Z,1020.04
2023-05-03T10:11:38.999Z,1020.09
2023-05-03T10:12:38.976Z,1020.05
2023-05-03T10:13:38.988Z,1020.07
2023-05-03T10:14:39.006Z,1020.05
2023-05-03T10:15:38.968Z,1020.04
2023-05-03T10:16:39.016Z,1019.99
2023-05-03T10:18:38.960Z,1019.96
2023-05-03T10:19:38.971Z,1019.95
2023-05-03T10:20:38.909Z,1019.94
2023-05-03T10:21:38.897Z,1019.93
2023-05-03T10:22:38.889Z,1019.86
2023-05-03T10:23:38.904Z,1019.86
2023-05-03T10:24:38.925Z,1019.83
2023-05-03T10:25:38.895Z,1019.79
2023-05-03T10:26:38.848Z,1019.76
2023-05-03T10:27:38.836Z,1019.77
2023-05-03T10:28:38.838Z,1019.78
2023-05-03T10:29:38.837Z,1019.76
2023-05-03T10:30:38.824Z,1019.76
2023-05-03T10:31:38.816Z,1019.68
2023-05-03T10:32:38.818Z,1019.67
2023-05-03T10:33:38.780Z,1019.68
2023-05-03T10:34:38.764Z,1019.63
2023-05-03T10:35:38.757Z,1019.57
2023-05-03T10:36:48.762Z,1019.58
2023-05-03T10:37:39.781Z,1019.60
2023-05-03T10:38:38.741Z,1019.60
2023-05-03T10:39:38.715Z,1019.55
2023-05-03T10:40:38.699Z,1019.56
2023-05-03T10:41:38.701Z,1019.59
2023-05-03T10:42:38.679Z,1019.61
2023-05-03T10:43:38.690Z,1019.62
2023-05-03T10:44:38.696Z,1019.61
2023-05-03T10:45:38.687Z,1019.61
2023-05-03T10:46:38.801Z,1019.60
2023-05-03T10:47:38.704Z,1019.65
2023-05-03T10:48:38.620Z,1019.61
2023-05-03T10:49:38.641Z,1019.63
2023-05-03T10:50:38.590Z,1019.61
2023-05-03T10:51:38.647Z,1019.60
2023-05-03T10:52:38.621Z,1019.61
2023-05-03T10:53:38.601Z,1019.52
2023-05-03T10:54:38.560Z,1019.54
2023-05-03T10:55:38.576Z,1019.45
2023-05-03T10:56:38.536Z,1019.54
2023-05-03T10:57:40.400Z,1019.47
2023-05-03T10:58:38.550Z,1019.42
2023-05-03T10:59:38.560Z,1019.41
2023-05-03T11:00:38.547Z,1019.51
2023-05-03T11:01:38.621Z,1019.51
2023-05-03T11:02:38.605Z,1019.46
2023-05-03T11:03:38.476Z,1019.43
2023-05-03T11:04:38.604Z,1019.40
2023-05-03T11:05:38.496Z,1019.39
2023-05-03T11:06:38.519Z,1019.34
2023-05-03T11:07:38.453Z,1019.32
2023-05-03T11:08:38.539Z,1019.32
2023-05-03T11:09:38.418Z,1019.30
2023-05-03T11:10:38.398Z,1019.30
2023-05-03T11:11:38.438Z,1019.31
2023-05-03T11:12:38.374Z,1019.34
2023-05-03T11:13:38.646Z,1019.33
2023-05-03T11:14:38.401Z,1019.37
2023-05-03T11:15:38.352Z,1019.38
2023-05-03T11:16:38.396Z,1019.35
2023-05-03T11:17:38.368Z,1019.35
2023-05-03T11:18:38.360Z,1019.37
2023-05-03T11:19:38.343Z,1019.38
2023-05-03T11:20:38.309Z,1019.36
2023-05-03T11:21:38.313Z,1019.33
2023-05-03T11:22:38.283Z,1019.31
2023-05-03T11:23:38.298Z,1019.29
2023-05-03T11:24:38.262Z,1019.31
2023-05-03T11:25:38.256Z,1019.27
2023-05-03T11:26:38.276Z,1019.31
2023-05-03T11:27:38.243Z,1019.32
2023-05-03T11:28:38.251Z,1019.26
2023-05-03T11:29:38.241Z,1019.31
2023-05-03T11:30:38.235Z,1019.29
2023-05-03T11:31:38.244Z,1019.25
2023-05-03T11:32:38.295Z,1019.29
2023-05-03T11:33:38.199Z,1019.28
2023-05-03T11:34:38.189Z,1019.29
2023-05-03T11:35:38.211Z,1019.28
2023-05-03T11:36:38.286Z,1019.26
2023-05-03T11:37:38.178Z,1019.30
2023-05-03T11:38:38.157Z,1019.23
2023-05-03T11:39:38.235Z,1019.22
2023-05-03T11:40:38.119Z,1019.24
2023-05-03T11:41:38.118Z,1019.30
2023-05-03T11:42:38.162Z,1019.27
2023-05-03T11:43:38.118Z,1019.25
2023-05-03T11:44:38.086Z,1019.25
2023-05-03T11:45:38.110Z,1019.24
2023-05-03T11:46:38.287Z,1019.27
2023-05-03T11:47:38.078Z,1019.24
2023-05-03T11:48:38.070Z,1019.19
2023-05-03T11:49:38.017Z,1019.18
2023-05-03T11:50:38.012Z,1019.14
2023-05-03T11:51:38.073Z,1019.12
2023-05-03T11:52:38.063Z,1019.13
2023-05-03T11:53:38.040Z,1019.11
2023-05-03T11:54:38.063Z,1019.09
2023-05-03T11:55:37.973Z,1019.03
2023-05-03T11:56:37.955Z,1019.03
2023-05-03T11:57:37.959Z,1019.04
2023-05-03T11:58:37.966Z,1019.01
2023-05-03T11:59:38.098Z,1019.00
2023-05-03T12:00:37.923Z,1019.00
2023-05-03T12:01:37.931Z,1019.00
2023-05-03T12:02:38.114Z,1019.03
2023-05-03T12:03:38.129Z,1019.05
2023-05-03T12:04:38.192Z,1019.01
2023-05-03T12:05:38.210Z,1019.01
2023-05-03T12:06:38.961Z,1018.91